Harbor Emperor — WCY6430 — position and weather

sailwx.info

Track history (hours):
 
Tides and Currents Weather Stations Pressure Air Temp Water Temp Dewpoint Dewpoint Depression Visibility Wind Speed Wind Dir Waves Ship Positions

Harbor Emperor

Owner: BLUE & GOLD FLEET, SAN FRANCISCO, CA. More information available from US FCC via Universal Licensing System and Coast Guard Vessel Documentation Center.

Last reported at 2017-May-26 02:27 UTC. Time now 2017-May-26 11:11 UTC.
Position N 37°49' W 122°25'.

Length 31 m.

Type: Passenger vessel. MMSI: 366985270.

Date/timePositionNaut miles runAvg speedWind from/ knotsBaromVisibWave heightAir tempDewpointWater temp
2017-May-26 02:27N 37°49' W 122°25'2 4.5
2017-May-26 02:00N 37°49' W 122°27'2 3.8
2017-May-26 01:29N 37°49' W 122°25'0 0.0
2017-May-26 00:59N 37°49' W 122°25'0 0.0
2017-May-26 00:29N 37°49' W 122°25'2 4.6
2017-May-26 00:00N 37°49' W 122°27'2 3.9
2017-May-25 23:26N 37°49' W 122°25'1 2.2
2017-May-25 23:00N 37°49' W 122°25'2 4.3
2017-May-25 22:30N 37°49' W 122°27'2 4.3
2017-May-25 21:58N 37°49' W 122°25'0 0.0
2017-May-25 21:28N 37°49' W 122°25'1 1.6
2017-May-25 21:00N 37°49' W 122°25'2 3.6
2017-May-25 20:30N 37°49' W 122°27'2 3.6
2017-May-25 19:58N 37°49' W 122°25'1 2.2
2017-May-25 19:30N 37°50' W 122°25'2 4.9
2017-May-25 19:00N 37°50' W 122°28'3 0.2
2017-May-25 02:31N 37°49' W 122°25'0 0.0
2017-May-25 02:29N 37°49' W 122°25'3 5.3
2017-May-25 02:00N 37°49' W 122°28'3 5.1
2017-May-25 01:30N 37°49' W 122°25'0 0.0
2017-May-25 01:00N 37°49' W 122°25'0 0.0
2017-May-25 00:31N 37°49' W 122°25'2 4.1
2017-May-25 00:00N 37°49' W 122°27'2 4.1
2017-May-24 23:30N 37°49' W 122°25'1 1.4
2017-May-24 23:00N 37°49' W 122°25'2 3.8
2017-May-24 22:30N 37°49' W 122°27'2 4.1
2017-May-24 22:00N 37°49' W 122°25'0 0.0
2017-May-24 21:30N 37°49' W 122°25'1 1.5
2017-May-24 21:00N 37°49' W 122°25'2 3.2
2017-May-24 20:30N 37°49' W 122°27'2 3.6
2017-May-24 20:00N 37°49' W 122°25'1 1.7
2017-May-24 19:30N 37°49' W 122°24'3 5.0
2017-May-24 19:00N 37°49' W 122°28'2 5.0
2017-May-24 18:30N 37°49' W 122°25'0 0.0
2017-May-24 17:58N 37°49' W 122°25'0 0.0
2017-May-24 17:29N 37°49' W 122°25'0 0.0
2017-May-24 16:59N 37°49' W 122°25'0 0.0
2017-May-24 16:29N 37°49' W 122°25'0 0.0
2017-May-24 15:59N 37°49' W 122°25'0 0.0
2017-May-24 15:29N 37°49' W 122°25'0 0.0
2017-May-24 14:59N 37°49' W 122°25'0 0.0
2017-May-24 13:59N 37°49' W 122°25'0 0.0
2017-May-24 13:29N 37°49' W 122°25'0 0.0
2017-May-24 12:59N 37°49' W 122°25'0 0.0
2017-May-24 12:29N 37°49' W 122°25'0 0.0
2017-May-24 11:59N 37°49' W 122°25'0 0.0
2017-May-24 11:29N 37°49' W 122°25'0 0.0
2017-May-24 10:59N 37°49' W 122°25'0 0.0
2017-May-24 10:29N 37°49' W 122°25'0 0.0
2017-May-24 09:59N 37°49' W 122°25'0 0.0
2017-May-24 09:29N 37°49' W 122°25'0 0.0
2017-May-24 08:59N 37°49' W 122°25'0 0.0
2017-May-24 08:29N 37°49' W 122°25'0 0.0
2017-May-24 07:59N 37°49' W 122°25'0 0.0
2017-May-24 07:29N 37°49' W 122°25'0 0.0
2017-May-24 06:59N 37°49' W 122°25'0 0.0
2017-May-24 06:29N 37°49' W 122°25'0 0.0
2017-May-24 05:59N 37°49' W 122°25'0 0.0
2017-May-24 05:29N 37°49' W 122°25'0 0.0
2017-May-24 04:59N 37°49' W 122°25'0 0.0
2017-May-24 04:25N 37°49' W 122°25'0 0.0
2017-May-24 03:58N 37°49' W 122°25'0 0.0
2017-May-24 03:28N 37°49' W 122°25'0 0.0
2017-May-24 02:58N 37°49' W 122°25'0 0.0
2017-May-24 02:29N 37°49' W 122°25'2 4.5
2017-May-24 02:00N 37°49' W 122°27'2 4.2
2017-May-24 01:31N 37°49' W 122°25'0 0.0
2017-May-24 01:00N 37°49' W 122°25'0 0.0
2017-May-24 00:30N 37°49' W 122°25'2 3.6
2017-May-24 00:00N 37°49' W 122°27'2 3.6
2017-May-23 23:31N 37°49' W 122°25'0 1.0
2017-May-23 23:00N 37°49' W 122°25'2 4.5
2017-May-23 22:31N 37°49' W 122°27'2 4.5
2017-May-23 22:00N 37°49' W 122°25'0 0.0
2017-May-23 21:30N 37°49' W 122°25'1 1.5
2017-May-23 21:00N 37°49' W 122°25'2 4.6
2017-May-23 20:31N 37°49' W 122°28'2 4.8
2017-May-23 20:00N 37°49' W 122°25'1 1.2
2017-May-23 19:31N 37°49' W 122°24'2 4.0
2017-May-23 19:01N 37°50' W 122°27'2 4.0
2017-May-23 18:30N 37°49' W 122°25'0 0.0
2017-May-23 17:58N 37°49' W 122°25'0 0.0
2017-May-23 17:30N 37°49' W 122°25'0 0.0
2017-May-23 17:00N 37°49' W 122°25'0 0.0
2017-May-23 16:30N 37°49' W 122°25'0 0.0
2017-May-23 16:00N 37°49' W 122°25'0 0.0
2017-May-23 15:30N 37°49' W 122°25'0 0.0
2017-May-23 15:00N 37°49' W 122°25'0 0.0
2017-May-23 14:30N 37°49' W 122°25'0 0.0
2017-May-23 13:30N 37°49' W 122°25'0 0.0
2017-May-23 13:00N 37°49' W 122°25'0 0.0
2017-May-23 12:30N 37°49' W 122°25'0 0.0
2017-May-23 12:00N 37°49' W 122°25'0 0.0
2017-May-23 11:21N 37°49' W 122°25'0 0.0
2017-May-23 11:00N 37°49' W 122°25'0 0.0
2017-May-23 10:30N 37°49' W 122°25'0 0.0
2017-May-23 10:00N 37°49' W 122°25'0 0.0
2017-May-23 09:30N 37°49' W 122°25'0 0.0
2017-May-23 09:00N 37°49' W 122°25'0 0.0
2017-May-23 08:30N 37°49' W 122°25'0 0.0
2017-May-23 07:57N 37°49' W 122°25'0 0.0
2017-May-23 07:30N 37°49' W 122°25'0 0.0
2017-May-23 07:00N 37°49' W 122°25'0 0.0
2017-May-23 06:30N 37°49' W 122°25'0 0.0
2017-May-23 06:00N 37°49' W 122°25'0 0.0
2017-May-23 05:30N 37°49' W 122°25'0 0.0
2017-May-23 05:00N 37°49' W 122°25'0 0.0
2017-May-23 04:30N 37°49' W 122°25'0 0.0
2017-May-23 04:00N 37°49' W 122°25'0 0.0
2017-May-23 03:30N 37°49' W 122°25'0 0.0
2017-May-23 03:00N 37°49' W 122°25'0 0.0
2017-May-23 02:30N 37°49' W 122°25'0 0.0
2017-May-23 02:00N 37°49' W 122°25'0 0.0
2017-May-23 01:30N 37°49' W 122°25'2 5.0
2017-May-23 01:01N 37°50' W 122°27'2 4.9
2017-May-23 00:31N 37°49' W 122°25'0 0.9
2017-May-23 00:01N 37°49' W 122°24'1 2.5
2017-May-22 23:31N 37°50' W 122°25'2 3.5
2017-May-22 23:01N 37°49' W 122°27'2 3.7
2017-May-22 22:30N 37°49' W 122°25'1 1.3
2017-May-22 22:01N 37°49' W 122°25'2 4.3
2017-May-22 21:31N 37°49' W 122°28'2 4.6
2017-May-22 21:00N 37°49' W 122°25'0 0.0
2017-May-22 20:31N 37°49' W 122°25'1 1.3
2017-May-22 20:00N 37°49' W 122°25'2 4.5
2017-May-22 19:30N 37°49' W 122°28'2 4.7
2017-May-22 19:01N 37°49' W 122°25'1 1.0
2017-May-22 18:30N 37°49' W 122°25'2 4.3
2017-May-22 18:00N 37°49' W 122°27'2 4.4
2017-May-22 17:30N 37°49' W 122°25'0 0.0
2017-May-22 16:59N 37°49' W 122°25'0 0.0
2017-May-22 16:26N 37°49' W 122°25'0 0.0
2017-May-22 15:53N 37°49' W 122°25'0 0.0
2017-May-22 15:29N 37°49' W 122°25'0 0.0
2017-May-22 14:59N 37°49' W 122°25'0 0.0
2017-May-22 13:59N 37°49' W 122°25'0 0.0
2017-May-22 13:29N 37°49' W 122°25'0 0.0
2017-May-22 12:59N 37°49' W 122°25'0 0.0
2017-May-22 12:29N 37°49' W 122°25'0 0.0
2017-May-22 11:59N 37°49' W 122°25'0 0.0
2017-May-22 11:29N 37°49' W 122°25'0 0.0
2017-May-22 10:59N 37°49' W 122°25'0 0.0
2017-May-22 10:29N 37°49' W 122°25'0 0.0
2017-May-22 09:59N 37°49' W 122°25'0 0.0
2017-May-22 09:29N 37°49' W 122°25'0 0.0
2017-May-22 08:59N 37°49' W 122°25'0 0.0
2017-May-22 08:29N 37°49' W 122°25'0 0.0
2017-May-22 07:59N 37°49' W 122°25'0 0.0
2017-May-22 07:29N 37°49' W 122°25'0 0.0
2017-May-22 06:59N 37°49' W 122°25'0 0.0
2017-May-22 06:29N 37°49' W 122°25'0 0.0
2017-May-22 05:59N 37°49' W 122°25'0 0.0
2017-May-22 05:29N 37°49' W 122°25'0 0.0
2017-May-22 04:56N 37°49' W 122°25'0 0.0
2017-May-22 04:29N 37°49' W 122°25'0 0.0
2017-May-22 03:59N 37°49' W 122°25'0 0.0
2017-May-22 03:29N 37°49' W 122°25'0 0.0
2017-May-22 02:59N 37°49' W 122°25'0 0.0
2017-May-22 02:29N 37°49' W 122°25'0 0.0
2017-May-22 01:59N 37°49' W 122°25'0 0.0
2017-May-22 01:28N 37°49' W 122°25'2 4.6
2017-May-22 01:00N 37°50' W 122°27'2 4.2
2017-May-22 00:30N 37°49' W 122°25'1 1.4
2017-May-22 00:00N 37°49' W 122°24'1 3.0
2017-May-21 23:31N 37°49' W 122°25'1 2.4
2017-May-21 23:01N 37°49' W 122°27'2 3.3
2017-May-21 22:30N 37°49' W 122°25'0 0.7
2017-May-21 22:01N 37°49' W 122°24'2 4.9
2017-May-21 21:30N 37°49' W 122°28'2 4.7
2017-May-21 21:00N 37°49' W 122°25'0 0.0
2017-May-21 20:30N 37°49' W 122°25'0 0.8
2017-May-21 20:00N 37°49' W 122°24'3 5.6
2017-May-21 19:31N 37°49' W 122°28'3 5.3
2017-May-21 19:00N 37°49' W 122°25'1 1.5
2017-May-21 18:31N 37°49' W 122°25'2 3.7
2017-May-21 18:00N 37°49' W 122°27'2 3.9
2017-May-21 17:30N 37°49' W 122°25'0 0.0
2017-May-21 17:00N 37°49' W 122°25'0 0.0
2017-May-21 16:30N 37°49' W 122°25'0 0.0
2017-May-21 16:00N 37°49' W 122°25'0 0.0
2017-May-21 15:30N 37°49' W 122°25'0 0.0
2017-May-21 15:00N 37°49' W 122°25'0 0.0
2017-May-21 14:00N 37°49' W 122°25'0 0.0
2017-May-21 13:30N 37°49' W 122°25'0 0.0
2017-May-21 13:00N 37°49' W 122°25'0 0.0
2017-May-21 12:30N 37°49' W 122°25'0 0.0
2017-May-21 12:00N 37°49' W 122°25'0 0.0
2017-May-21 11:30N 37°49' W 122°25'0 0.0
2017-May-21 11:00N 37°49' W 122°25'0 0.0
2017-May-21 10:30N 37°49' W 122°25'0 0.0
2017-May-21 10:00N 37°49' W 122°25'0 0.0
2017-May-21 09:30N 37°49' W 122°25'0 0.0
2017-May-21 09:00N 37°49' W 122°25'0 0.0
2017-May-21 08:30N 37°49' W 122°25'0 0.0
2017-May-21 08:00N 37°49' W 122°25'0 0.0
2017-May-21 07:30N 37°49' W 122°25'0 0.0
2017-May-21 07:00N 37°49' W 122°25'0 0.1
2017-May-21 06:30N 37°49' W 122°25'4 8.7
2017-May-21 06:00N 37°52' W 122°27'2 4.0
2017-May-21 05:30N 37°50' W 122°26'2 4.8
2017-May-21 05:01N 37°49' W 122°25'4 8.7
2017-May-21 04:31N 37°52' W 122°27'1 3.0
2017-May-21 04:01N 37°51' W 122°29'2 4.8
2017-May-21 03:31N 37°50' W 122°26'2 3.6
2017-May-21 03:01N 37°49' W 122°25'4 7.5
2017-May-21 02:31N 37°52' W 122°27'1 1.1
2017-May-21 02:01N 37°52' W 122°27'4 8.6
2017-May-21 01:30N 37°49' W 122°25'0 0.0
2017-May-21 01:01N 37°49' W 122°25'0 0.2
2017-May-21 00:31N 37°49' W 122°25'4 8.2
2017-May-21 00:01N 37°51' W 122°29'2 4.3
2017-May-20 23:30N 37°52' W 122°26'4 7.5
2017-May-20 23:00N 37°49' W 122°25'0 0.1
2017-May-20 22:30N 37°49' W 122°25'0 0.0
2017-May-20 22:00N 37°49' W 122°25'2 3.6
2017-May-20 21:30N 37°50' W 122°26'2 4.4
2017-May-20 21:01N 37°52' W 122°26'4 7.5
2017-May-20 20:30N 37°49' W 122°25'0 0.0
2017-May-20 20:00N 37°49' W 122°25'0 0.1
2017-May-20 19:30N 37°49' W 122°25'4 7.5
2017-May-20 19:00N 37°52' W 122°26'2 4.7
2017-May-20 18:30N 37°50' W 122°26'2 3.3
2017-May-20 18:01N 37°49' W 122°25'4 7.4
2017-May-20 17:30N 37°52' W 122°26'3 6.3
2017-May-20 17:00N 37°49' W 122°25'2 3.6
2017-May-20 16:30N 37°48' W 122°24'1 2.3
2017-May-20 16:00N 37°49' W 122°24'0 0.0
2017-May-20 03:57N 37°49' W 122°25'1 2.3
2017-May-20 03:31N 37°48' W 122°24'1 1.2
2017-May-20 03:01N 37°48' W 122°23'3 5.7
2017-May-20 02:31N 37°50' W 122°25'2 3.8
2017-May-20 02:01N 37°50' W 122°28'1 2.2
2017-May-20 01:31N 37°49' W 122°27'2 4.3
2017-May-20 01:00N 37°49' W 122°25'0 0.0
2017-May-20 00:31N 37°49' W 122°25'0 0.0
2017-May-20 00:01N 37°49' W 122°25'0 0.0
2017-May-19 23:30N 37°49' W 122°25'0 0.0
2017-May-19 23:01N 37°49' W 122°25'0 0.0
2017-May-19 22:31N 37°49' W 122°25'0 0.0
2017-May-19 22:00N 37°49' W 122°25'0 0.0
2017-May-19 21:30N 37°49' W 122°25'1 1.1
2017-May-19 21:01N 37°49' W 122°25'2 3.3
2017-May-19 20:30N 37°49' W 122°27'2 3.6
2017-May-19 20:01N 37°49' W 122°25'1 1.6
2017-May-19 19:31N 37°49' W 122°25'2 4.8
2017-May-19 19:01N 37°49' W 122°28'2 4.9
2017-May-19 18:30N 37°49' W 122°25'0 0.0
2017-May-19 18:00N 37°49' W 122°25'0 0.0
2017-May-19 17:31N 37°49' W 122°25'0 0.0
2017-May-19 17:01N 37°49' W 122°25'0 0.0
2017-May-19 16:30N 37°49' W 122°25'0 0.0
2017-May-19 16:00N 37°49' W 122°25'0 0.0
2017-May-19 15:30N 37°49' W 122°25'0 0.0
2017-May-19 15:01N 37°49' W 122°25'0 0.0
2017-May-19 14:01N 37°49' W 122°25'0 0.0
2017-May-19 13:31N 37°49' W 122°25'0 0.0
2017-May-19 13:00N 37°49' W 122°25'0 0.0
2017-May-19 12:31N 37°49' W 122°25'0 0.0
2017-May-19 12:00N 37°49' W 122°25'0 0.0
2017-May-19 11:30N 37°49' W 122°25'0 0.0
2017-May-19 06:04N 37°49' W 122°25'0 0.0
2017-May-19 05:59N 37°49' W 122°25'1 1.7
2017-May-19 05:30N 37°49' W 122°25'4 7.2
2017-May-19 05:01N 37°52' W 122°27'1 2.7
2017-May-19 04:31N 37°51' W 122°27'5 9.4
2017-May-19 04:01N 37°48' W 122°23'3 5.1
2017-May-19 03:31N 37°49' W 122°26'2 4.9
2017-May-19 03:01N 37°49' W 122°29'2 4.1
2017-May-19 02:30N 37°51' W 122°28'1 2.7
2017-May-19 02:01N 37°52' W 122°27'0 0.9
2017-May-19 01:31N 37°52' W 122°27'4 7.7
2017-May-19 01:01N 37°49' W 122°25'0 0.0
2017-May-19 00:30N 37°49' W 122°25'0 0.0
2017-May-19 00:00N 37°49' W 122°25'0 0.0
2017-May-18 23:30N 37°49' W 122°25'0 0.0
2017-May-18 23:01N 37°49' W 122°25'0 0.0
2017-May-18 22:30N 37°49' W 122°25'0 0.0
2017-May-18 22:00N 37°49' W 122°25'0 0.0
2017-May-18 21:31N 37°49' W 122°25'1 1.3
2017-May-18 21:00N 37°49' W 122°25'2 3.5
2017-May-18 20:31N 37°49' W 122°27'2 3.6
2017-May-18 20:00N 37°49' W 122°25'1 1.3
2017-May-18 19:30N 37°49' W 122°24'3 5.0
2017-May-18 19:01N 37°49' W 122°28'2 4.8
2017-May-18 18:30N 37°49' W 122°25'0 0.0
2017-May-18 18:00N 37°49' W 122°25'0 0.0
2017-May-18 17:31N 37°49' W 122°25'0 0.0
2017-May-18 17:01N 37°49' W 122°25'0 0.0
2017-May-18 16:31N 37°49' W 122°25'0 0.0
2017-May-18 16:01N 37°49' W 122°25'0 0.0
2017-May-18 15:31N 37°49' W 122°25'0 0.0
2017-May-18 15:01N 37°49' W 122°25'0 0.0
2017-May-18 14:01N 37°49' W 122°25'0 0.0
2017-May-18 13:31N 37°49' W 122°25'0 0.0
2017-May-18 13:01N 37°49' W 122°25'0 0.0
2017-May-18 12:30N 37°49' W 122°25'0 0.0
2017-May-18 12:01N 37°49' W 122°25'0 0.0
2017-May-18 11:31N 37°49' W 122°25'0 0.0
2017-May-18 11:01N 37°49' W 122°25'0 0.0
2017-May-18 10:31N 37°49' W 122°25'0 0.0
2017-May-18 10:01N 37°49' W 122°25'0 0.0
2017-May-18 09:31N 37°49' W 122°25'0 0.0
2017-May-18 09:01N 37°49' W 122°25'0 0.0
2017-May-18 08:31N 37°49' W 122°25'0 0.0
2017-May-18 08:00N 37°49' W 122°25'0 0.0
2017-May-18 07:30N 37°49' W 122°25'0 0.0
2017-May-18 07:01N 37°49' W 122°25'0 0.0
2017-May-18 06:30N 37°49' W 122°25'0 0.0
2017-May-18 06:00N 37°49' W 122°25'0 0.0
2017-May-18 05:31N 37°49' W 122°25'0 0.0
2017-May-18 05:01N 37°49' W 122°25'1 2.4
2017-May-18 04:31N 37°48' W 122°23'1 1.6
2017-May-18 04:01N 37°49' W 122°24'3 6.9
2017-May-18 03:30N 37°52' W 122°25'3 6.2
2017-May-18 03:01N 37°50' W 122°28'1 2.8
2017-May-18 02:31N 37°49' W 122°27'2 3.7
2017-May-18 02:01N 37°49' W 122°25'0 0.0
2017-May-18 01:31N 37°49' W 122°25'0 0.0
2017-May-18 01:00N 37°49' W 122°25'0 0.0
2017-May-18 00:30N 37°49' W 122°25'0 0.0
2017-May-18 00:01N 37°49' W 122°25'0 0.0
2017-May-17 23:30N 37°49' W 122°25'0 0.0
2017-May-17 23:01N 37°49' W 122°25'0 0.0
2017-May-17 22:30N 37°49' W 122°25'0 0.0
2017-May-17 22:01N 37°49' W 122°25'0 0.0
2017-May-17 21:30N 37°49' W 122°25'1 2.1
2017-May-17 21:00N 37°50' W 122°25'2 3.3
2017-May-17 20:30N 37°49' W 122°27'2 3.7
2017-May-17 20:01N 37°49' W 122°25'1 1.4
2017-May-17 19:31N 37°49' W 122°24'3 5.7
2017-May-17 19:00N 37°49' W 122°28'3 5.1
2017-May-17 18:30N 37°49' W 122°25'0 0.0
2017-May-17 01:21N 37°49' W 122°25'2 5.2
2017-May-17 01:00N 37°49' W 122°27'2 3.5
2017-May-17 00:30N 37°49' W 122°25'1 1.9
2017-May-17 00:00N 37°48' W 122°23'2 4.3
2017-May-16 23:30N 37°50' W 122°25'2 3.1
2017-May-16 23:01N 37°49' W 122°27'2 3.3
2017-May-16 22:30N 37°49' W 122°25'1 1.2
2017-May-16 22:00N 37°49' W 122°24'2 3.9
2017-May-16 21:30N 37°49' W 122°27'2 3.7
2017-May-16 21:00N 37°49' W 122°25'0 0.0
2017-May-16 20:30N 37°49' W 122°25'1 1.1
2017-May-16 20:00N 37°49' W 122°24'2 4.4
2017-May-16 19:30N 37°49' W 122°27'2 3.8
2017-May-16 19:00N 37°49' W 122°25'1 1.6
2017-May-16 18:30N 37°49' W 122°25'2 3.2
2017-May-16 18:01N 37°49' W 122°27'2 3.3
2017-May-16 17:30N 37°49' W 122°25'0 0.0
2017-May-16 16:59N 37°49' W 122°25'  
Track history (hours):
 
Tides and Currents Weather Stations Pressure Air Temp Water Temp Dewpoint Dewpoint Depression Visibility Wind Speed Wind Dir Waves Ship Positions

Harbor Emperor

Owner: BLUE & GOLD FLEET, SAN FRANCISCO, CA. More information available from US FCC via Universal Licensing System and Coast Guard Vessel Documentation Center.

Last reported at 2017-May-26 02:27 UTC. Time now 2017-May-26 11:11 UTC.
Position N 37°49' W 122°25'.

Length 31 m.

Type: Passenger vessel. MMSI: 366985270.

Date/timePositionNaut miles runAvg speedWind from/ knotsBaromVisibWave heightAir tempDewpointWater temp
2017-May-26 02:27N 37°49' W 122°25'2 4.5
2017-May-26 02:00N 37°49' W 122°27'2 3.8
2017-May-26 01:29N 37°49' W 122°25'0 0.0
2017-May-26 00:59N 37°49' W 122°25'0 0.0
2017-May-26 00:29N 37°49' W 122°25'2 4.6
2017-May-26 00:00N 37°49' W 122°27'2 3.9
2017-May-25 23:26N 37°49' W 122°25'1 2.2
2017-May-25 23:00N 37°49' W 122°25'2 4.3
2017-May-25 22:30N 37°49' W 122°27'2 4.3
2017-May-25 21:58N 37°49' W 122°25'0 0.0
2017-May-25 21:28N 37°49' W 122°25'1 1.6
2017-May-25 21:00N 37°49' W 122°25'2 3.6
2017-May-25 20:30N 37°49' W 122°27'2 3.6
2017-May-25 19:58N 37°49' W 122°25'1 2.2
2017-May-25 19:30N 37°50' W 122°25'2 4.9
2017-May-25 19:00N 37°50' W 122°28'3 0.2
2017-May-25 02:31N 37°49' W 122°25'0 0.0
2017-May-25 02:29N 37°49' W 122°25'3 5.3
2017-May-25 02:00N 37°49' W 122°28'3 5.1
2017-May-25 01:30N 37°49' W 122°25'0 0.0
2017-May-25 01:00N 37°49' W 122°25'0 0.0
2017-May-25 00:31N 37°49' W 122°25'2 4.1
2017-May-25 00:00N 37°49' W 122°27'2 4.1
2017-May-24 23:30N 37°49' W 122°25'1 1.4
2017-May-24 23:00N 37°49' W 122°25'2 3.8
2017-May-24 22:30N 37°49' W 122°27'2 4.1
2017-May-24 22:00N 37°49' W 122°25'0 0.0
2017-May-24 21:30N 37°49' W 122°25'1 1.5
2017-May-24 21:00N 37°49' W 122°25'2 3.2
2017-May-24 20:30N 37°49' W 122°27'2 3.6
2017-May-24 20:00N 37°49' W 122°25'1 1.7
2017-May-24 19:30N 37°49' W 122°24'3 5.0
2017-May-24 19:00N 37°49' W 122°28'2 5.0
2017-May-24 18:30N 37°49' W 122°25'0 0.0
2017-May-24 17:58N 37°49' W 122°25'0 0.0
2017-May-24 17:29N 37°49' W 122°25'0 0.0
2017-May-24 16:59N 37°49' W 122°25'0 0.0
2017-May-24 16:29N 37°49' W 122°25'0 0.0
2017-May-24 15:59N 37°49' W 122°25'0 0.0
2017-May-24 15:29N 37°49' W 122°25'0 0.0
2017-May-24 14:59N 37°49' W 122°25'0 0.0
2017-May-24 13:59N 37°49' W 122°25'0 0.0
2017-May-24 13:29N 37°49' W 122°25'0 0.0
2017-May-24 12:59N 37°49' W 122°25'0 0.0
2017-May-24 12:29N 37°49' W 122°25'0 0.0
2017-May-24 11:59N 37°49' W 122°25'0 0.0
2017-May-24 11:29N 37°49' W 122°25'0 0.0
2017-May-24 10:59N 37°49' W 122°25'0 0.0
2017-May-24 10:29N 37°49' W 122°25'0 0.0
2017-May-24 09:59N 37°49' W 122°25'0 0.0
2017-May-24 09:29N 37°49' W 122°25'0 0.0
2017-May-24 08:59N 37°49' W 122°25'0 0.0
2017-May-24 08:29N 37°49' W 122°25'0 0.0
2017-May-24 07:59N 37°49' W 122°25'0 0.0
2017-May-24 07:29N 37°49' W 122°25'0 0.0
2017-May-24 06:59N 37°49' W 122°25'0 0.0
2017-May-24 06:29N 37°49' W 122°25'0 0.0
2017-May-24 05:59N 37°49' W 122°25'0 0.0
2017-May-24 05:29N 37°49' W 122°25'0 0.0
2017-May-24 04:59N 37°49' W 122°25'0 0.0
2017-May-24 04:25N 37°49' W 122°25'0 0.0
2017-May-24 03:58N 37°49' W 122°25'0 0.0
2017-May-24 03:28N 37°49' W 122°25'0 0.0
2017-May-24 02:58N 37°49' W 122°25'0 0.0
2017-May-24 02:29N 37°49' W 122°25'2 4.5
2017-May-24 02:00N 37°49' W 122°27'2 4.2
2017-May-24 01:31N 37°49' W 122°25'0 0.0
2017-May-24 01:00N 37°49' W 122°25'0 0.0
2017-May-24 00:30N 37°49' W 122°25'2 3.6
2017-May-24 00:00N 37°49' W 122°27'2 3.6
2017-May-23 23:31N 37°49' W 122°25'0 1.0
2017-May-23 23:00N 37°49' W 122°25'2 4.5
2017-May-23 22:31N 37°49' W 122°27'2 4.5
2017-May-23 22:00N 37°49' W 122°25'0 0.0
2017-May-23 21:30N 37°49' W 122°25'1 1.5
2017-May-23 21:00N 37°49' W 122°25'2 4.6
2017-May-23 20:31N 37°49' W 122°28'2 4.8
2017-May-23 20:00N 37°49' W 122°25'1 1.2
2017-May-23 19:31N 37°49' W 122°24'2 4.0
2017-May-23 19:01N 37°50' W 122°27'2 4.0
2017-May-23 18:30N 37°49' W 122°25'0 0.0
2017-May-23 17:58N 37°49' W 122°25'0 0.0
2017-May-23 17:30N 37°49' W 122°25'0 0.0
2017-May-23 17:00N 37°49' W 122°25'0 0.0
2017-May-23 16:30N 37°49' W 122°25'0 0.0
2017-May-23 16:00N 37°49' W 122°25'0 0.0
2017-May-23 15:30N 37°49' W 122°25'0 0.0
2017-May-23 15:00N 37°49' W 122°25'0 0.0
2017-May-23 14:30N 37°49' W 122°25'0 0.0
2017-May-23 13:30N 37°49' W 122°25'0 0.0
2017-May-23 13:00N 37°49' W 122°25'0 0.0
2017-May-23 12:30N 37°49' W 122°25'0 0.0
2017-May-23 12:00N 37°49' W 122°25'0 0.0
2017-May-23 11:21N 37°49' W 122°25'0 0.0
2017-May-23 11:00N 37°49' W 122°25'0 0.0
2017-May-23 10:30N 37°49' W 122°25'0 0.0
2017-May-23 10:00N 37°49' W 122°25'0 0.0
2017-May-23 09:30N 37°49' W 122°25'0 0.0
2017-May-23 09:00N 37°49' W 122°25'0 0.0
2017-May-23 08:30N 37°49' W 122°25'0 0.0
2017-May-23 07:57N 37°49' W 122°25'0 0.0
2017-May-23 07:30N 37°49' W 122°25'0 0.0
2017-May-23 07:00N 37°49' W 122°25'0 0.0
2017-May-23 06:30N 37°49' W 122°25'0 0.0
2017-May-23 06:00N 37°49' W 122°25'0 0.0
2017-May-23 05:30N 37°49' W 122°25'0 0.0
2017-May-23 05:00N 37°49' W 122°25'0 0.0
2017-May-23 04:30N 37°49' W 122°25'0 0.0
2017-May-23 04:00N 37°49' W 122°25'0 0.0
2017-May-23 03:30N 37°49' W 122°25'0 0.0
2017-May-23 03:00N 37°49' W 122°25'0 0.0
2017-May-23 02:30N 37°49' W 122°25'0 0.0
2017-May-23 02:00N 37°49' W 122°25'0 0.0
2017-May-23 01:30N 37°49' W 122°25'2 5.0
2017-May-23 01:01N 37°50' W 122°27'2 4.9
2017-May-23 00:31N 37°49' W 122°25'0 0.9
2017-May-23 00:01N 37°49' W 122°24'1 2.5
2017-May-22 23:31N 37°50' W 122°25'2 3.5
2017-May-22 23:01N 37°49' W 122°27'2 3.7
2017-May-22 22:30N 37°49' W 122°25'1 1.3
2017-May-22 22:01N 37°49' W 122°25'2 4.3
2017-May-22 21:31N 37°49' W 122°28'2 4.6
2017-May-22 21:00N 37°49' W 122°25'0 0.0
2017-May-22 20:31N 37°49' W 122°25'1 1.3
2017-May-22 20:00N 37°49' W 122°25'2 4.5
2017-May-22 19:30N 37°49' W 122°28'2 4.7
2017-May-22 19:01N 37°49' W 122°25'1 1.0
2017-May-22 18:30N 37°49' W 122°25'2 4.3
2017-May-22 18:00N 37°49' W 122°27'2 4.4
2017-May-22 17:30N 37°49' W 122°25'0 0.0
2017-May-22 16:59N 37°49' W 122°25'0 0.0
2017-May-22 16:26N 37°49' W 122°25'0 0.0
2017-May-22 15:53N 37°49' W 122°25'0 0.0
2017-May-22 15:29N 37°49' W 122°25'0 0.0
2017-May-22 14:59N 37°49' W 122°25'0 0.0
2017-May-22 13:59N 37°49' W 122°25'0 0.0
2017-May-22 13:29N 37°49' W 122°25'0 0.0
2017-May-22 12:59N 37°49' W 122°25'0 0.0
2017-May-22 12:29N 37°49' W 122°25'0 0.0
2017-May-22 11:59N 37°49' W 122°25'0 0.0
2017-May-22 11:29N 37°49' W 122°25'0 0.0
2017-May-22 10:59N 37°49' W 122°25'0 0.0
2017-May-22 10:29N 37°49' W 122°25'0 0.0
2017-May-22 09:59N 37°49' W 122°25'0 0.0
2017-May-22 09:29N 37°49' W 122°25'0 0.0
2017-May-22 08:59N 37°49' W 122°25'0 0.0
2017-May-22 08:29N 37°49' W 122°25'0 0.0
2017-May-22 07:59N 37°49' W 122°25'0 0.0
2017-May-22 07:29N 37°49' W 122°25'0 0.0
2017-May-22 06:59N 37°49' W 122°25'0 0.0
2017-May-22 06:29N 37°49' W 122°25'0 0.0
2017-May-22 05:59N 37°49' W 122°25'0 0.0
2017-May-22 05:29N 37°49' W 122°25'0 0.0
2017-May-22 04:56N 37°49' W 122°25'0 0.0
2017-May-22 04:29N 37°49' W 122°25'0 0.0
2017-May-22 03:59N 37°49' W 122°25'0 0.0
2017-May-22 03:29N 37°49' W 122°25'0 0.0
2017-May-22 02:59N 37°49' W 122°25'0 0.0
2017-May-22 02:29N 37°49' W 122°25'0 0.0
2017-May-22 01:59N 37°49' W 122°25'0 0.0
2017-May-22 01:28N 37°49' W 122°25'2 4.6
2017-May-22 01:00N 37°50' W 122°27'2 4.2
2017-May-22 00:30N 37°49' W 122°25'1 1.4
2017-May-22 00:00N 37°49' W 122°24'1 3.0
2017-May-21 23:31N 37°49' W 122°25'1 2.4
2017-May-21 23:01N 37°49' W 122°27'2 3.3
2017-May-21 22:30N 37°49' W 122°25'0 0.7
2017-May-21 22:01N 37°49' W 122°24'2 4.9
2017-May-21 21:30N 37°49' W 122°28'2 4.7
2017-May-21 21:00N 37°49' W 122°25'0 0.0
2017-May-21 20:30N 37°49' W 122°25'0 0.8
2017-May-21 20:00N 37°49' W 122°24'3 5.6
2017-May-21 19:31N 37°49' W 122°28'3 5.3
2017-May-21 19:00N 37°49' W 122°25'1 1.5
2017-May-21 18:31N 37°49' W 122°25'2 3.7
2017-May-21 18:00N 37°49' W 122°27'2 3.9
2017-May-21 17:30N 37°49' W 122°25'0 0.0
2017-May-21 17:00N 37°49' W 122°25'0 0.0
2017-May-21 16:30N 37°49' W 122°25'0 0.0
2017-May-21 16:00N 37°49' W 122°25'0 0.0
2017-May-21 15:30N 37°49' W 122°25'0 0.0
2017-May-21 15:00N 37°49' W 122°25'0 0.0
2017-May-21 14:00N 37°49' W 122°25'0 0.0
2017-May-21 13:30N 37°49' W 122°25'0 0.0
2017-May-21 13:00N 37°49' W 122°25'0 0.0
2017-May-21 12:30N 37°49' W 122°25'0 0.0
2017-May-21 12:00N 37°49' W 122°25'0 0.0
2017-May-21 11:30N 37°49' W 122°25'0 0.0
2017-May-21 11:00N 37°49' W 122°25'0 0.0
2017-May-21 10:30N 37°49' W 122°25'0 0.0
2017-May-21 10:00N 37°49' W 122°25'0 0.0
2017-May-21 09:30N 37°49' W 122°25'0 0.0
2017-May-21 09:00N 37°49' W 122°25'0 0.0
2017-May-21 08:30N 37°49' W 122°25'0 0.0
2017-May-21 08:00N 37°49' W 122°25'0 0.0
2017-May-21 07:30N 37°49' W 122°25'0 0.0
2017-May-21 07:00N 37°49' W 122°25'0 0.1
2017-May-21 06:30N 37°49' W 122°25'4 8.7
2017-May-21 06:00N 37°52' W 122°27'2 4.0
2017-May-21 05:30N 37°50' W 122°26'2 4.8
2017-May-21 05:01N 37°49' W 122°25'4 8.7
2017-May-21 04:31N 37°52' W 122°27'1 3.0
2017-May-21 04:01N 37°51' W 122°29'2 4.8
2017-May-21 03:31N 37°50' W 122°26'2 3.6
2017-May-21 03:01N 37°49' W 122°25'4 7.5
2017-May-21 02:31N 37°52' W 122°27'1 1.1
2017-May-21 02:01N 37°52' W 122°27'4 8.6
2017-May-21 01:30N 37°49' W 122°25'0 0.0
2017-May-21 01:01N 37°49' W 122°25'0 0.2
2017-May-21 00:31N 37°49' W 122°25'4 8.2
2017-May-21 00:01N 37°51' W 122°29'2 4.3
2017-May-20 23:30N 37°52' W 122°26'4 7.5
2017-May-20 23:00N 37°49' W 122°25'0 0.1
2017-May-20 22:30N 37°49' W 122°25'0 0.0
2017-May-20 22:00N 37°49' W 122°25'2 3.6
2017-May-20 21:30N 37°50' W 122°26'2 4.4
2017-May-20 21:01N 37°52' W 122°26'4 7.5
2017-May-20 20:30N 37°49' W 122°25'0 0.0
2017-May-20 20:00N 37°49' W 122°25'0 0.1
2017-May-20 19:30N 37°49' W 122°25'4 7.5
2017-May-20 19:00N 37°52' W 122°26'2 4.7
2017-May-20 18:30N 37°50' W 122°26'2 3.3
2017-May-20 18:01N 37°49' W 122°25'4 7.4
2017-May-20 17:30N 37°52' W 122°26'3 6.3
2017-May-20 17:00N 37°49' W 122°25'2 3.6
2017-May-20 16:30N 37°48' W 122°24'1 2.3
2017-May-20 16:00N 37°49' W 122°24'0 0.0
2017-May-20 03:57N 37°49' W 122°25'1 2.3
2017-May-20 03:31N 37°48' W 122°24'1 1.2
2017-May-20 03:01N 37°48' W 122°23'3 5.7
2017-May-20 02:31N 37°50' W 122°25'2 3.8
2017-May-20 02:01N 37°50' W 122°28'1 2.2
2017-May-20 01:31N 37°49' W 122°27'2 4.3
2017-May-20 01:00N 37°49' W 122°25'0 0.0
2017-May-20 00:31N 37°49' W 122°25'0 0.0
2017-May-20 00:01N 37°49' W 122°25'0 0.0
2017-May-19 23:30N 37°49' W 122°25'0 0.0
2017-May-19 23:01N 37°49' W 122°25'0 0.0
2017-May-19 22:31N 37°49' W 122°25'0 0.0
2017-May-19 22:00N 37°49' W 122°25'0 0.0
2017-May-19 21:30N 37°49' W 122°25'1 1.1
2017-May-19 21:01N 37°49' W 122°25'2 3.3
2017-May-19 20:30N 37°49' W 122°27'2 3.6
2017-May-19 20:01N 37°49' W 122°25'1 1.6
2017-May-19 19:31N 37°49' W 122°25'2 4.8
2017-May-19 19:01N 37°49' W 122°28'2 4.9
2017-May-19 18:30N 37°49' W 122°25'0 0.0
2017-May-19 18:00N 37°49' W 122°25'0 0.0
2017-May-19 17:31N 37°49' W 122°25'0 0.0
2017-May-19 17:01N 37°49' W 122°25'0 0.0
2017-May-19 16:30N 37°49' W 122°25'0 0.0
2017-May-19 16:00N 37°49' W 122°25'0 0.0
2017-May-19 15:30N 37°49' W 122°25'0 0.0
2017-May-19 15:01N 37°49' W 122°25'0 0.0
2017-May-19 14:01N 37°49' W 122°25'0 0.0
2017-May-19 13:31N 37°49' W 122°25'0 0.0
2017-May-19 13:00N 37°49' W 122°25'0 0.0
2017-May-19 12:31N 37°49' W 122°25'0 0.0
2017-May-19 12:00N 37°49' W 122°25'0 0.0
2017-May-19 11:30N 37°49' W 122°25'0 0.0
2017-May-19 06:04N 37°49' W 122°25'0 0.0
2017-May-19 05:59N 37°49' W 122°25'1 1.7
2017-May-19 05:30N 37°49' W 122°25'4 7.2
2017-May-19 05:01N 37°52' W 122°27'1 2.7
2017-May-19 04:31N 37°51' W 122°27'5 9.4
2017-May-19 04:01N 37°48' W 122°23'3 5.1
2017-May-19 03:31N 37°49' W 122°26'2 4.9
2017-May-19 03:01N 37°49' W 122°29'2 4.1
2017-May-19 02:30N 37°51' W 122°28'1 2.7
2017-May-19 02:01N 37°52' W 122°27'0 0.9
2017-May-19 01:31N 37°52' W 122°27'4 7.7
2017-May-19 01:01N 37°49' W 122°25'0 0.0
2017-May-19 00:30N 37°49' W 122°25'0 0.0
2017-May-19 00:00N 37°49' W 122°25'0 0.0
2017-May-18 23:30N 37°49' W 122°25'0 0.0
2017-May-18 23:01N 37°49' W 122°25'0 0.0
2017-May-18 22:30N 37°49' W 122°25'0 0.0
2017-May-18 22:00N 37°49' W 122°25'0 0.0
2017-May-18 21:31N 37°49' W 122°25'1 1.3
2017-May-18 21:00N 37°49' W 122°25'2 3.5
2017-May-18 20:31N 37°49' W 122°27'2 3.6
2017-May-18 20:00N 37°49' W 122°25'1 1.3
2017-May-18 19:30N 37°49' W 122°24'3 5.0
2017-May-18 19:01N 37°49' W 122°28'2 4.8
2017-May-18 18:30N 37°49' W 122°25'0 0.0
2017-May-18 18:00N 37°49' W 122°25'0 0.0
2017-May-18 17:31N 37°49' W 122°25'0 0.0
2017-May-18 17:01N 37°49' W 122°25'0 0.0
2017-May-18 16:31N 37°49' W 122°25'0 0.0
2017-May-18 16:01N 37°49' W 122°25'0 0.0
2017-May-18 15:31N 37°49' W 122°25'0 0.0
2017-May-18 15:01N 37°49' W 122°25'0 0.0
2017-May-18 14:01N 37°49' W 122°25'0 0.0
2017-May-18 13:31N 37°49' W 122°25'0 0.0
2017-May-18 13:01N 37°49' W 122°25'0 0.0
2017-May-18 12:30N 37°49' W 122°25'0 0.0
2017-May-18 12:01N 37°49' W 122°25'0 0.0
2017-May-18 11:31N 37°49' W 122°25'0 0.0
2017-May-18 11:01N 37°49' W 122°25'0 0.0
2017-May-18 10:31N 37°49' W 122°25'0 0.0
2017-May-18 10:01N 37°49' W 122°25'0 0.0
2017-May-18 09:31N 37°49' W 122°25'0 0.0
2017-May-18 09:01N 37°49' W 122°25'0 0.0
2017-May-18 08:31N 37°49' W 122°25'0 0.0
2017-May-18 08:00N 37°49' W 122°25'0 0.0
2017-May-18 07:30N 37°49' W 122°25'0 0.0
2017-May-18 07:01N 37°49' W 122°25'0 0.0
2017-May-18 06:30N 37°49' W 122°25'0 0.0
2017-May-18 06:00N 37°49' W 122°25'0 0.0
2017-May-18 05:31N 37°49' W 122°25'0 0.0
2017-May-18 05:01N 37°49' W 122°25'1 2.4
2017-May-18 04:31N 37°48' W 122°23'1 1.6
2017-May-18 04:01N 37°49' W 122°24'3 6.9
2017-May-18 03:30N 37°52' W 122°25'3 6.2
2017-May-18 03:01N 37°50' W 122°28'1 2.8
2017-May-18 02:31N 37°49' W 122°27'2 3.7
2017-May-18 02:01N 37°49' W 122°25'0 0.0
2017-May-18 01:31N 37°49' W 122°25'0 0.0
2017-May-18 01:00N 37°49' W 122°25'0 0.0
2017-May-18 00:30N 37°49' W 122°25'0 0.0
2017-May-18 00:01N 37°49' W 122°25'0 0.0
2017-May-17 23:30N 37°49' W 122°25'0 0.0
2017-May-17 23:01N 37°49' W 122°25'0 0.0
2017-May-17 22:30N 37°49' W 122°25'0 0.0
2017-May-17 22:01N 37°49' W 122°25'0 0.0
2017-May-17 21:30N 37°49' W 122°25'1 2.1
2017-May-17 21:00N 37°50' W 122°25'2 3.3
2017-May-17 20:30N 37°49' W 122°27'2 3.7
2017-May-17 20:01N 37°49' W 122°25'1 1.4
2017-May-17 19:31N 37°49' W 122°24'3 5.7
2017-May-17 19:00N 37°49' W 122°28'3 5.1
2017-May-17 18:30N 37°49' W 122°25'0 0.0
2017-May-17 01:21N 37°49' W 122°25'2 5.2
2017-May-17 01:00N 37°49' W 122°27'2 3.5
2017-May-17 00:30N 37°49' W 122°25'1 1.9
2017-May-17 00:00N 37°48' W 122°23'2 4.3
2017-May-16 23:30N 37°50' W 122°25'2 3.1
2017-May-16 23:01N 37°49' W 122°27'2 3.3
2017-May-16 22:30N 37°49' W 122°25'1 1.2
2017-May-16 22:00N 37°49' W 122°24'2 3.9
2017-May-16 21:30N 37°49' W 122°27'2 3.7
2017-May-16 21:00N 37°49' W 122°25'0 0.0
2017-May-16 20:30N 37°49' W 122°25'1 1.1
2017-May-16 20:00N 37°49' W 122°24'2 4.4
2017-May-16 19:30N 37°49' W 122°27'2 3.8
2017-May-16 19:00N 37°49' W 122°25'1 1.6
2017-May-16 18:30N 37°49' W 122°25'2 3.2
2017-May-16 18:01N 37°49' W 122°27'2 3.3
2017-May-16 17:30N 37°49' W 122°25'0 0.0
2017-May-16 16:59N 37°49' W 122°25'  

Dump ship's entire track history